sensor_id;sensor_type;location;lat;lon;timestamp;pressure;altitude;pressure_sealevel;temperature;humidity
70506;BME280;58032;49.820;6.274;2023-02-28T00:01:22;98516.94;;;-3.14;100.00
70506;BME280;58032;49.820;6.274;2023-02-28T00:03:50;98521.44;;;-3.22;100.00
70506;BME280;58032;49.820;6.274;2023-02-28T00:06:17;98512.13;;;-3.05;100.00
70506;BME280;58032;49.820;6.274;2023-02-28T00:08:44;98514.66;;;-3.12;100.00
70506;BME280;58032;49.820;6.274;2023-02-28T00:11:12;98513.41;;;-3.15;100.00
70506;BME280;58032;49.820;6.274;2023-02-28T00:13:42;98526.25;;;-3.07;100.00
70506;BME280;58032;49.820;6.274;2023-02-28T00:16:13;98516.03;;;-3.06;100.00
70506;BME280;58032;49.820;6.274;2023-02-28T00:18:40;98518.00;;;-3.07;100.00
70506;BME280;58032;49.820;6.274;2023-02-28T00:21:07;98517.53;;;-3.09;100.00
70506;BME280;58032;49.820;6.274;2023-02-28T00:23:34;98519.56;;;-3.06;100.00
70506;BME280;58032;49.820;6.274;2023-02-28T00:26:01;98526.13;;;-2.98;100.00
70506;BME280;58032;49.820;6.274;2023-02-28T00:28:29;98525.09;;;-2.93;100.00
70506;BME280;58032;49.820;6.274;2023-02-28T00:30:58;98527.59;;;-2.88;100.00
70506;BME280;58032;49.820;6.274;2023-02-28T00:33:28;98530.94;;;-3.07;100.00
70506;BME280;58032;49.820;6.274;2023-02-28T00:36:06;98528.75;;;-3.14;100.00
70506;BME280;58032;49.820;6.274;2023-02-28T00:38:35;98538.19;;;-3.27;100.00
70506;BME280;58032;49.820;6.274;2023-02-28T00:41:02;98523.50;;;-3.19;100.00
70506;BME280;58032;49.820;6.274;2023-02-28T00:43:35;98526.25;;;-3.31;100.00
70506;BME280;58032;49.820;6.274;2023-02-28T00:46:03;98529.59;;;-3.26;100.00
70506;BME280;58032;49.820;6.274;2023-02-28T00:48:31;98530.16;;;-3.20;100.00
70506;BME280;58032;49.820;6.274;2023-02-28T00:50:58;98528.53;;;-3.21;100.00
70506;BME280;58032;49.820;6.274;2023-02-28T00:53:25;98524.63;;;-3.20;100.00
70506;BME280;58032;49.820;6.274;2023-02-28T00:55:52;98522.47;;;-3.14;100.00
70506;BME280;58032;49.820;6.274;2023-02-28T00:58:19;98526.94;;;-3.10;100.00
70506;BME280;58032;49.820;6.274;2023-02-28T01:00:46;98531.28;;;-3.21;100.00
70506;BME280;58032;49.820;6.274;2023-02-28T01:03:17;98529.91;;;-3.27;100.00
70506;BME280;58032;49.820;6.274;2023-02-28T01:05:45;98531.75;;;-3.19;100.00
70506;BME280;58032;49.820;6.274;2023-02-28T01:08:12;98526.03;;;-3.39;100.00
70506;BME280;58032;49.820;6.274;2023-02-28T01:10:40;98528.19;;;-3.32;100.00
70506;BME280;58032;49.820;6.274;2023-02-28T01:13:07;98521.66;;;-3.27;100.00
70506;BME280;58032;49.820;6.274;2023-02-28T01:15:36;98532.44;;;-3.35;100.00
70506;BME280;58032;49.820;6.274;2023-02-28T01:18:04;98523.50;;;-3.31;100.00
70506;BME280;58032;49.820;6.274;2023-02-28T01:20:31;98525.31;;;-3.36;100.00
70506;BME280;58032;49.820;6.274;2023-02-28T01:22:58;98517.63;;;-3.18;100.00
70506;BME280;58032;49.820;6.274;2023-02-28T01:25:24;98521.06;;;-3.33;100.00
70506;BME280;58032;49.820;6.274;2023-02-28T01:27:51;98525.91;;;-3.18;100.00
70506;BME280;58032;49.820;6.274;2023-02-28T01:30:18;98525.56;;;-3.28;100.00
70506;BME280;58032;49.820;6.274;2023-02-28T01:32:46;98526.94;;;-3.35;100.00
70506;BME280;58032;49.820;6.274;2023-02-28T01:35:13;98522.34;;;-3.30;100.00
70506;BME280;58032;49.820;6.274;2023-02-28T01:37:40;98520.88;;;-3.28;100.00
70506;BME280;58032;49.820;6.274;2023-02-28T01:40:07;98520.63;;;-3.35;100.00
70506;BME280;58032;49.820;6.274;2023-02-28T01:42:34;98512.25;;;-3.26;100.00
70506;BME280;58032;49.820;6.274;2023-02-28T01:45:22;98524.88;;;-3.38;100.00
70506;BME280;58032;49.820;6.274;2023-02-28T01:47:51;98523.03;;;-3.34;100.00
70506;BME280;58032;49.820;6.274;2023-02-28T01:50:23;98523.59;;;-3.40;100.00
70506;BME280;58032;49.820;6.274;2023-02-28T01:52:54;98528.31;;;-3.41;100.00
70506;BME280;58032;49.820;6.274;2023-02-28T01:55:23;98521.19;;;-3.42;100.00
70506;BME280;58032;49.820;6.274;2023-02-28T01:58:00;98528.66;;;-3.42;100.00
70506;BME280;58032;49.820;6.274;2023-02-28T02:00:29;98523.59;;;-3.40;100.00
70506;BME280;58032;49.820;6.274;2023-02-28T02:02:59;98529.69;;;-3.47;100.00
70506;BME280;58032;49.820;6.274;2023-02-28T02:05:29;98520.94;;;-3.61;100.00
70506;BME280;58032;49.820;6.274;2023-02-28T02:08:02;98516.34;;;-3.70;100.00
70506;BME280;58032;49.820;6.274;2023-02-28T02:10:40;98520.25;;;-3.71;100.00
70506;BME280;58032;49.820;6.274;2023-02-28T02:13:29;98516.69;;;-3.59;100.00
70506;BME280;58032;49.820;6.274;2023-02-28T02:16:03;98513.38;;;-3.64;100.00
70506;BME280;58032;49.820;6.274;2023-02-28T02:18:48;98516.13;;;-3.64;100.00
70506;BME280;58032;49.820;6.274;2023-02-28T02:24:17;98512.88;;;-3.67;100.00
70506;BME280;58032;49.820;6.274;2023-02-28T02:35:21;98506.84;;;-3.60;100.00
70506;BME280;58032;49.820;6.274;2023-02-28T02:37:59;98499.38;;;-3.72;100.00
70506;BME280;58032;49.820;6.274;2023-02-28T02:40:56;98497.53;;;-3.68;100.00
70506;BME280;58032;49.820;6.274;2023-02-28T02:43:32;98497.91;;;-3.57;100.00
70506;BME280;58032;49.820;6.274;2023-02-28T02:46:10;98490.19;;;-3.51;100.00
70506;BME280;58032;49.820;6.274;2023-02-28T02:48:40;98499.81;;;-3.70;100.00
70506;BME280;58032;49.820;6.274;2023-02-28T02:51:15;98496.03;;;-3.77;100.00
70506;BME280;58032;49.820;6.274;2023-02-28T02:53:57;98502.34;;;-3.64;100.00
70506;BME280;58032;49.820;6.274;2023-02-28T02:56:28;98489.28;;;-3.55;100.00
70506;BME280;58032;49.820;6.274;2023-02-28T02:59:03;98496.19;;;-3.61;100.00
70506;BME280;58032;49.820;6.274;2023-02-28T03:01:32;98496.59;;;-3.72;100.00
70506;BME280;58032;49.820;6.274;2023-02-28T03:04:03;98495.13;;;-3.69;100.00
70506;BME280;58032;49.820;6.274;2023-02-28T03:06:31;98497.53;;;-3.68;100.00
70506;BME280;58032;49.820;6.274;2023-02-28T03:08:59;98500.72;;;-3.78;100.00
70506;BME280;58032;49.820;6.274;2023-02-28T03:11:27;98502.59;;;-3.70;100.00
70506;BME280;58032;49.820;6.274;2023-02-28T03:27:11;98499.72;;;-3.73;100.00
70506;BME280;58032;49.820;6.274;2023-02-28T03:29:55;98502.78;;;-3.87;100.00
70506;BME280;58032;49.820;6.274;2023-02-28T03:32:36;98500.38;;;-3.89;100.00
70506;BME280;58032;49.820;6.274;2023-02-28T03:37:38;98504.25;;;-3.90;100.00
70506;BME280;58032;49.820;6.274;2023-02-28T03:40:14;98507.38;;;-3.79;100.00
70506;BME280;58032;49.820;6.274;2023-02-28T03:42:47;98508.28;;;-3.87;100.00
70506;BME280;58032;49.820;6.274;2023-02-28T03:45:19;98506.22;;;-3.78;100.00
70506;BME280;58032;49.820;6.274;2023-02-28T03:47:54;98504.38;;;-3.86;100.00
70506;BME280;58032;49.820;6.274;2023-02-28T03:50:35;98504.25;;;-3.90;100.00
70506;BME280;58032;49.820;6.274;2023-02-28T03:53:30;98506.22;;;-3.78;100.00
70506;BME280;58032;49.820;6.274;2023-02-28T03:56:04;98501.19;;;-3.76;100.00
70506;BME280;58032;49.820;6.274;2023-02-28T03:58:51;98505.28;;;-3.82;100.00
70506;BME280;58032;49.820;6.274;2023-02-28T04:03:53;98508.50;;;-3.92;100.00
70506;BME280;58032;49.820;6.274;2023-02-28T04:06:21;98512.50;;;-3.90;100.00
70506;BME280;58032;49.820;6.274;2023-02-28T04:08:49;98504.34;;;-3.99;100.00
70506;BME280;58032;49.820;6.274;2023-02-28T04:11:18;98512.94;;;-4.00;100.00
70506;BME280;58032;49.820;6.274;2023-02-28T04:13:46;98514.53;;;-3.99;100.00
70506;BME280;58032;49.820;6.274;2023-02-28T04:16:13;98518.44;;;-4.00;100.00
70506;BME280;58032;49.820;6.274;2023-02-28T04:18:57;98512.13;;;-4.01;100.00
70506;BME280;58032;49.820;6.274;2023-02-28T04:21:29;98510.09;;;-3.91;100.00
70506;BME280;58032;49.820;6.274;2023-02-28T04:23:56;98507.13;;;-3.99;100.00
70506;BME280;58032;49.820;6.274;2023-02-28T04:26:31;98512.94;;;-4.00;100.00
70506;BME280;58032;49.820;6.274;2023-02-28T04:28:59;98516.31;;;-4.16;100.00
70506;BME280;58032;49.820;6.274;2023-02-28T04:31:26;98509.22;;;-4.17;100.00
70506;BME280;58032;49.820;6.274;2023-02-28T04:33:54;98517.81;;;-4.18;100.00
70506;BME280;58032;49.820;6.274;2023-02-28T04:36:20;98510.50;;;-4.14;100.00
70506;BME280;58032;49.820;6.274;2023-02-28T04:38:49;98522.50;;;-4.19;100.00
70506;BME280;58032;49.820;6.274;2023-02-28T04:41:16;98521.16;;;-4.13;100.00
70506;BME280;58032;49.820;6.274;2023-02-28T04:43:43;98519.41;;;-4.17;100.00
70506;BME280;58032;49.820;6.274;2023-02-28T04:46:10;98503.25;;;-4.19;100.00
70506;BME280;58032;49.820;6.274;2023-02-28T04:48:39;98512.31;;;-4.18;100.00
70506;BME280;58032;49.820;6.274;2023-02-28T04:51:08;98512.84;;;-4.25;100.00
70506;BME280;58032;49.820;6.274;2023-02-28T04:53:37;98517.91;;;-4.27;100.00
70506;BME280;58032;49.820;6.274;2023-02-28T04:56:05;98518.69;;;-4.26;100.00
70506;BME280;58032;49.820;6.274;2023-02-28T04:58:34;98519.66;;;-4.10;100.00
70506;BME280;58032;49.820;6.274;2023-02-28T05:01:05;98515.53;;;-4.16;100.00
70506;BME280;58032;49.820;6.274;2023-02-28T05:03:39;98511.38;;;-4.22;100.00
70506;BME280;58032;49.820;6.274;2023-02-28T05:06:10;98523.25;;;-4.31;100.00
70506;BME280;58032;49.820;6.274;2023-02-28T05:08:38;98516.53;;;-4.21;100.00
70506;BME280;58032;49.820;6.274;2023-02-28T05:11:24;98523.19;;;-4.22;100.00
70506;BME280;58032;49.820;6.274;2023-02-28T05:13:52;98515.16;;;-4.27;100.00
70506;BME280;58032;49.820;6.274;2023-02-28T05:16:19;98520.78;;;-4.23;100.00
70506;BME280;58032;49.820;6.274;2023-02-28T05:18:46;98519.69;;;-4.31;100.00
70506;BME280;58032;49.820;6.274;2023-02-28T05:21:25;98527.31;;;-4.16;100.00
70506;BME280;58032;49.820;6.274;2023-02-28T05:23:53;98525.00;;;-4.26;100.00
70506;BME280;58032;49.820;6.274;2023-02-28T05:26:20;98523.66;;;-4.41;100.00
70506;BME280;58032;49.820;6.274;2023-02-28T05:28:47;98535.53;;;-4.49;100.00
70506;BME280;58032;49.820;6.274;2023-02-28T05:31:14;98528.69;;;-4.43;100.00
70506;BME280;58032;49.820;6.274;2023-02-28T05:33:40;98521.31;;;-4.51;100.00
70506;BME280;58032;49.820;6.274;2023-02-28T05:36:08;98530.25;;;-4.54;100.00
70506;BME280;58032;49.820;6.274;2023-02-28T05:38:34;98520.31;;;-4.47;100.00
70506;BME280;58032;49.820;6.274;2023-02-28T05:41:05;98518.38;;;-4.46;100.00
70506;BME280;58032;49.820;6.274;2023-02-28T05:43:33;98527.56;;;-4.42;100.00
70506;BME280;58032;49.820;6.274;2023-02-28T05:46:05;98519.78;;;-4.40;100.00
70506;BME280;58032;49.820;6.274;2023-02-28T05:48:34;98529.81;;;-4.44;100.00
70506;BME280;58032;49.820;6.274;2023-02-28T05:51:01;98522.75;;;-4.45;100.00
70506;BME280;58032;49.820;6.274;2023-02-28T05:53:29;98525.75;;;-4.59;100.00
70506;BME280;58032;49.820;6.274;2023-02-28T05:55:56;98513.28;;;-4.56;100.00
70506;BME280;58032;49.820;6.274;2023-02-28T05:58:23;98523.06;;;-4.47;100.00
70506;BME280;58032;49.820;6.274;2023-02-28T06:00:52;98515.81;;;-4.51;100.00
70506;BME280;58032;49.820;6.274;2023-02-28T06:03:18;98527.91;;;-4.65;100.00
70506;BME280;58032;49.820;6.274;2023-02-28T06:05:45;98519.88;;;-4.49;100.00
70506;BME280;58032;49.820;6.274;2023-02-28T06:08:12;98531.53;;;-4.52;100.00
70506;BME280;58032;49.820;6.274;2023-02-28T06:10:39;98531.53;;;-4.52;100.00
70506;BME280;58032;49.820;6.274;2023-02-28T06:13:06;98535.41;;;-4.53;100.00
70506;BME280;58032;49.820;6.274;2023-02-28T06:15:33;98527.03;;;-4.56;100.00
70506;BME280;58032;49.820;6.274;2023-02-28T06:18:00;98528.63;;;-4.55;100.00
70506;BME280;58032;49.820;6.274;2023-02-28T06:20:27;98529.28;;;-4.58;100.00
70506;BME280;58032;49.820;6.274;2023-02-28T06:22:58;98530.28;;;-4.63;100.00
70506;BME280;58032;49.820;6.274;2023-02-28T06:25:27;98525.75;;;-4.59;100.00
70506;BME280;58032;49.820;6.274;2023-02-28T06:27:54;98536.41;;;-4.57;100.00
70506;BME280;58032;49.820;6.274;2023-02-28T06:30:21;98540.50;;;-4.64;100.00
70506;BME280;58032;49.820;6.274;2023-02-28T06:32:52;98550.84;;;-4.61;100.00
70506;BME280;58032;49.820;6.274;2023-02-28T06:35:19;98550.41;;;-4.50;100.00
70506;BME280;58032;49.820;6.274;2023-02-28T06:37:46;98546.78;;;-4.63;100.00
70506;BME280;58032;49.820;6.274;2023-02-28T06:40:14;98546.75;;;-4.54;100.00
70506;BME280;58032;49.820;6.274;2023-02-28T06:42:41;98550.75;;;-4.52;100.00
70506;BME280;58032;49.820;6.274;2023-02-28T06:45:09;98552.72;;;-4.52;100.00
70506;BME280;58032;49.820;6.274;2023-02-28T06:47:40;98553.50;;;-4.52;100.00
70506;BME280;58032;49.820;6.274;2023-02-28T06:50:09;98562.75;;;-4.56;100.00
70506;BME280;58032;49.820;6.274;2023-02-28T06:52:36;98559.47;;;-4.50;100.00
70506;BME280;58032;49.820;6.274;2023-02-28T06:55:05;98564.38;;;-4.55;100.00
70506;BME280;58032;49.820;6.274;2023-02-28T06:57:34;98564.63;;;-4.48;100.00
70506;BME280;58032;49.820;6.274;2023-02-28T07:00:06;98574.28;;;-4.42;100.00
70506;BME280;58032;49.820;6.274;2023-02-28T07:02:35;98573.50;;;-4.42;100.00
70506;BME280;58032;49.820;6.274;2023-02-28T07:05:04;98566.44;;;-4.31;100.00
70506;BME280;58032;49.820;6.274;2023-02-28T07:07:31;98568.19;;;-4.26;100.00
70506;BME280;58032;49.820;6.274;2023-02-28T07:09:59;98568.19;;;-4.26;100.00
70506;BME280;58032;49.820;6.274;2023-02-28T07:12:25;98574.16;;;-4.24;100.00
70506;BME280;58032;49.820;6.274;2023-02-28T07:14:52;98560.88;;;-4.22;100.00
70506;BME280;58032;49.820;6.274;2023-02-28T07:17:21;98575.22;;;-4.17;100.00
70506;BME280;58032;49.820;6.274;2023-02-28T07:19:47;98575.81;;;-4.11;100.00
70506;BME280;58032;49.820;6.274;2023-02-28T07:22:14;98577.91;;;-4.08;100.00
70506;BME280;58032;49.820;6.274;2023-02-28T07:24:41;98575.47;;;-4.09;100.00
70506;BME280;58032;49.820;6.274;2023-02-28T07:27:08;98577.72;;;-3.90;100.00
70506;BME280;58032;49.820;6.274;2023-02-28T07:29:35;98580.03;;;-3.92;100.00
70506;BME280;58032;49.820;6.274;2023-02-28T07:32:02;98582.19;;;-3.98;100.00
70506;BME280;58032;49.820;6.274;2023-02-28T07:34:29;98584.41;;;-3.91;100.00
70506;BME280;58032;49.820;6.274;2023-02-28T07:36:56;98571.38;;;-3.70;100.00
70506;BME280;58032;49.820;6.274;2023-02-28T07:39:22;98564.63;;;-1.35;100.00
70506;BME280;58032;49.820;6.274;2023-02-28T07:41:49;98561.06;;;-0.52;100.00
70506;BME280;58032;49.820;6.274;2023-02-28T07:44:16;98558.84;;;-1.46;100.00
70506;BME280;58032;49.820;6.274;2023-02-28T07:46:43;98571.75;;;-2.07;100.00
70506;BME280;58032;49.820;6.274;2023-02-28T07:49:10;98567.91;;;-2.59;100.00
70506;BME280;58032;49.820;6.274;2023-02-28T07:51:37;98565.50;;;-2.73;100.00
70506;BME280;58032;49.820;6.274;2023-02-28T07:54:04;98570.34;;;-3.07;100.00
70506;BME280;58032;49.820;6.274;2023-02-28T07:56:31;98565.03;;;-2.75;100.00
70506;BME280;58032;49.820;6.274;2023-02-28T07:58:58;98567.13;;;-2.84;100.00
70506;BME280;58032;49.820;6.274;2023-02-28T08:01:25;98570.56;;;-3.24;100.00
70506;BME280;58032;49.820;6.274;2023-02-28T08:03:51;98571.25;;;-2.90;100.00
70506;BME280;58032;49.820;6.274;2023-02-28T08:06:21;98579.59;;;-3.24;100.00
70506;BME280;58032;49.820;6.274;2023-02-28T08:08:49;98569.63;;;-3.04;100.00
70506;BME280;58032;49.820;6.274;2023-02-28T08:11:16;98570.97;;;-2.60;100.00
70506;BME280;58032;49.820;6.274;2023-02-28T08:13:44;98576.94;;;-2.46;100.00
70506;BME280;58032;49.820;6.274;2023-02-28T08:16:12;98584.41;;;-2.34;100.00
70506;BME280;58032;49.820;6.274;2023-02-28T08:18:49;98569.31;;;-2.36;100.00
70506;BME280;58032;49.820;6.274;2023-02-28T08:21:17;98570.69;;;-2.96;100.00
70506;BME280;58032;49.820;6.274;2023-02-28T08:23:48;98570.53;;;-2.75;100.00
70506;BME280;58032;49.820;6.274;2023-02-28T08:26:19;98574.34;;;-2.67;100.00
70506;BME280;58032;49.820;6.274;2023-02-28T08:28:46;98572.69;;;-2.56;100.00
70506;BME280;58032;49.820;6.274;2023-02-28T08:31:14;98569.09;;;-2.31;100.00
70506;BME280;58032;49.820;6.274;2023-02-28T08:33:42;98559.16;;;-2.61;100.00
70506;BME280;58032;49.820;6.274;2023-02-28T08:36:11;98561.13;;;-2.20;100.00
70506;BME280;58032;49.820;6.274;2023-02-28T08:38:39;98566.03;;;-2.55;100.00
70506;BME280;58032;49.820;6.274;2023-02-28T08:41:11;98561.47;;;-2.22;100.00
70506;BME280;58032;49.820;6.274;2023-02-28T08:43:39;98577.66;;;-2.74;100.00
70506;BME280;58032;49.820;6.274;2023-02-28T08:46:06;98564.19;;;-2.50;100.00
70506;BME280;58032;49.820;6.274;2023-02-28T08:48:34;98565.84;;;-2.21;100.00
70506;BME280;58032;49.820;6.274;2023-02-28T08:51:16;98564.50;;;-1.70;100.00
70506;BME280;58032;49.820;6.274;2023-02-28T08:53:45;98560.94;;;-1.99;100.00
70506;BME280;58032;49.820;6.274;2023-02-28T08:56:13;98560.94;;;-1.99;100.00
70506;BME280;58032;49.820;6.274;2023-02-28T08:58:40;98564.75;;;-2.04;100.00
70506;BME280;58032;49.820;6.274;2023-02-28T09:01:09;98559.81;;;-1.54;100.00
70506;BME280;58032;49.820;6.274;2023-02-28T09:03:36;98562.31;;;-1.17;100.00
70506;BME280;58032;49.820;6.274;2023-02-28T09:06:04;98551.34;;;-1.61;100.00
70506;BME280;58032;49.820;6.274;2023-02-28T09:08:31;98564.59;;;-1.95;100.00
70506;BME280;58032;49.820;6.274;2023-02-28T09:10:58;98563.81;;;-1.51;100.00
70506;BME280;58032;49.820;6.274;2023-02-28T09:13:27;98558.84;;;-1.46;100.00
70506;BME280;58032;49.820;6.274;2023-02-28T09:15:57;98553.56;;;-1.51;100.00
70506;BME280;58032;49.820;6.274;2023-02-28T09:18:27;98545.28;;;-1.35;100.00
70506;BME280;58032;49.820;6.274;2023-02-28T09:20:54;98560.16;;;-1.39;100.00
70506;BME280;58032;49.820;6.274;2023-02-28T09:23:21;98586.09;;;-1.88;100.00
70506;BME280;58032;49.820;6.274;2023-02-28T09:25:50;98561.28;;;-1.56;100.00
70506;BME280;58032;49.820;6.274;2023-02-28T09:28:18;98556.41;;;-1.47;100.00
70506;BME280;58032;49.820;6.274;2023-02-28T09:30:48;98546.16;;;-0.99;100.00
70506;BME280;58032;49.820;6.274;2023-02-28T09:33:16;98549.38;;;-0.97;100.00
70506;BME280;58032;49.820;6.274;2023-02-28T09:35:43;98553.56;;;-1.19;100.00
70506;BME280;58032;49.820;6.274;2023-02-28T09:38:32;98571.75;;;-1.18;100.00
70506;BME280;58032;49.820;6.274;2023-02-28T09:41:01;98563.66;;;-1.26;100.00
70506;BME280;58032;49.820;6.274;2023-02-28T09:43:33;98562.72;;;-0.83;100.00
70506;BME280;58032;49.820;6.274;2023-02-28T09:48:48;98546.66;;;-0.77;100.00
70506;BME280;58032;49.820;6.274;2023-02-28T09:53:55;98566.59;;;-1.03;100.00
70506;BME280;58032;49.820;6.274;2023-02-28T09:56:36;98555.69;;;-0.96;100.00
70506;BME280;58032;49.820;6.274;2023-02-28T10:04:50;98549.66;;;-1.18;100.00
70506;BME280;58032;49.820;6.274;2023-02-28T10:10:26;98536.81;;;-0.58;100.00
70506;BME280;58032;49.820;6.274;2023-02-28T10:12:58;98544.66;;;-0.60;100.00
70506;BME280;58032;49.820;6.274;2023-02-28T10:15:30;98546.75;;;-0.73;100.00
70506;BME280;58032;49.820;6.274;2023-02-28T10:18:00;98547.69;;;-0.30;100.00
70506;BME280;58032;49.820;6.274;2023-02-28T10:20:38;98551.59;;;-0.51;100.00
70506;BME280;58032;49.820;6.274;2023-02-28T10:23:20;98555.03;;;-0.38;100.00
70506;BME280;58032;49.820;6.274;2023-02-28T10:25:55;98544.91;;;-0.30;100.00
70506;BME280;58032;49.820;6.274;2023-02-28T10:28:25;98543.34;;;-0.31;100.00
70506;BME280;58032;49.820;6.274;2023-02-28T10:30:53;98539.97;;;0.61;100.00
70506;BME280;58032;49.820;6.274;2023-02-28T10:33:24;98531.72;;;0.42;100.00
70506;BME280;58032;49.820;6.274;2023-02-28T10:35:52;98541.78;;;0.54;100.00
70506;BME280;58032;49.820;6.274;2023-02-28T10:38:26;98534.28;;;0.77;100.00
70506;BME280;58032;49.820;6.274;2023-02-28T10:43:31;98523.19;;;1.01;100.00
70506;BME280;58032;49.820;6.274;2023-02-28T10:46:10;98533.16;;;0.36;100.00
70506;BME280;58032;49.820;6.274;2023-02-28T10:51:14;98527.44;;;0.71;100.00
70506;BME280;58032;49.820;6.274;2023-02-28T10:53:54;98514.59;;;0.83;100.00
70506;BME280;58032;49.820;6.274;2023-02-28T10:56:29;98545.28;;;-0.32;100.00
70506;BME280;58032;49.820;6.274;2023-02-28T11:03:58;98516.41;;;0.75;100.00
70506;BME280;58032;49.820;6.274;2023-02-28T11:06:34;98520.78;;;0.29;100.00
70506;BME280;58032;49.820;6.274;2023-02-28T11:11:46;98530.03;;;0.37;100.00
70506;BME280;58032;49.820;6.274;2023-02-28T11:14:27;98530.22;;;-0.34;100.00
70506;BME280;58032;49.820;6.274;2023-02-28T11:16:58;98531.22;;;-0.62;100.00
70506;BME280;58032;49.820;6.274;2023-02-28T11:19:35;98543.53;;;-0.75;100.00
70506;BME280;58032;49.820;6.274;2023-02-28T11:22:05;98541.13;;;-0.41;100.00
70506;BME280;58032;49.820;6.274;2023-02-28T11:24:53;98539.69;;;-0.71;100.00
70506;BME280;58032;49.820;6.274;2023-02-28T11:29:58;98512.03;;;-0.71;100.00
70506;BME280;58032;49.820;6.274;2023-02-28T11:32:27;98524.09;;;-0.04;100.00
70506;BME280;58032;49.820;6.274;2023-02-28T11:35:02;98511.94;;;-0.19;100.00
70506;BME280;58032;49.820;6.274;2023-02-28T11:37:31;98513.91;;;0.00;100.00
70506;BME280;58032;49.820;6.274;2023-02-28T11:39:59;98499.50;;;0.34;100.00
70506;BME280;58032;49.820;6.274;2023-02-28T11:43:33;98518.41;;;-0.51;100.00
70506;BME280;58032;49.820;6.274;2023-02-28T11:46:03;98509.13;;;0.20;100.00
70506;BME280;58032;49.820;6.274;2023-02-28T11:54:33;98509.22;;;0.04;100.00
70506;BME280;58032;49.820;6.274;2023-02-28T11:57:15;98504.59;;;0.55;100.00
70506;BME280;58032;49.820;6.274;2023-02-28T12:05:46;98514.69;;;0.01;100.00
70506;BME280;58032;49.820;6.274;2023-02-28T12:11:01;98488.63;;;0.94;100.00
70506;BME280;58032;49.820;6.274;2023-02-28T12:13:46;98484.91;;;1.10;100.00
70506;BME280;58032;49.820;6.274;2023-02-28T12:19:25;98485.94;;;1.29;100.00
70506;BME280;58032;49.820;6.274;2023-02-28T12:24:29;98489.91;;;1.01;100.00
70506;BME280;58032;49.820;6.274;2023-02-28T12:27:03;98494.59;;;1.23;100.00
70506;BME280;58032;49.820;6.274;2023-02-28T12:29:39;98482.72;;;1.26;100.00
70506;BME280;58032;49.820;6.274;2023-02-28T12:32:16;98484.09;;;0.83;100.00
70506;BME280;58032;49.820;6.274;2023-02-28T12:34:53;98488.34;;;1.03;100.00
70506;BME280;58032;49.820;6.274;2023-02-28T12:37:46;98490.53;;;0.90;100.00
70506;BME280;58032;49.820;6.274;2023-02-28T12:40:18;98487.19;;;0.54;100.00
70506;BME280;58032;49.820;6.274;2023-02-28T12:42:56;98492.66;;;0.51;100.00
70506;BME280;58032;49.820;6.274;2023-02-28T12:45:46;98487.06;;;0.47;100.00
70506;BME280;58032;49.820;6.274;2023-02-28T12:48:24;98488.03;;;0.58;100.00
70506;BME280;58032;49.820;6.274;2023-02-28T12:50:52;98476.94;;;0.82;100.00
70506;BME280;58032;49.820;6.274;2023-02-28T12:53:30;98484.41;;;0.54;100.00
70506;BME280;58032;49.820;6.274;2023-02-28T12:56:15;98473.00;;;0.83;100.00
70506;BME280;58032;49.820;6.274;2023-02-28T12:58:50;98478.19;;;0.61;100.00
70506;BME280;58032;49.820;6.274;2023-02-28T13:07:33;98481.78;;;1.15;100.00
70506;BME280;58032;49.820;6.274;2023-02-28T13:10:05;98478.88;;;1.04;100.00
70506;BME280;58032;49.820;6.274;2023-02-28T13:12:35;98475.44;;;0.61;100.00
70506;BME280;58032;49.820;6.274;2023-02-28T13:15:08;98474.53;;;0.80;100.00
70506;BME280;58032;49.820;6.274;2023-02-28T13:17:48;98473.56;;;1.83;100.00
70506;BME280;58032;49.820;6.274;2023-02-28T13:20:24;98453.63;;;1.13;100.00
70506;BME280;58032;49.820;6.274;2023-02-28T13:22:53;98456.25;;;1.02;100.00
70506;BME280;58032;49.820;6.274;2023-02-28T13:28:02;98456.41;;;1.13;100.00
70506;BME280;58032;49.820;6.274;2023-02-28T13:31:03;98455.28;;;0.91;100.00
70506;BME280;58032;49.820;6.274;2023-02-28T13:38:48;98455.53;;;0.82;100.00
70506;BME280;58032;49.820;6.274;2023-02-28T13:41:40;98466.72;;;0.39;100.00
70506;BME280;58032;49.820;6.274;2023-02-28T13:49:28;98452.88;;;0.62;100.00
70506;BME280;58032;49.820;6.274;2023-02-28T13:52:17;98465.84;;;0.82;100.00
70506;BME280;58032;49.820;6.274;2023-02-28T13:54:54;98450.91;;;0.90;100.00
70506;BME280;58032;49.820;6.274;2023-02-28T14:05:32;98470.25;;;1.74;97.59
70506;BME280;58032;49.820;6.274;2023-02-28T14:08:06;98447.72;;;1.45;96.13
70506;BME280;58032;49.820;6.274;2023-02-28T14:10:49;98443.28;;;1.71;96.54
70506;BME280;58032;49.820;6.274;2023-02-28T14:15:54;98435.44;;;1.80;96.61
70506;BME280;58032;49.820;6.274;2023-02-28T14:18:33;98437.75;;;2.12;94.11
70506;BME280;58032;49.820;6.274;2023-02-28T14:32:44;98435.50;;;2.25;94.58
70506;BME280;58032;49.820;6.274;2023-02-28T14:35:40;98432.94;;;2.05;91.32
70506;BME280;58032;49.820;6.274;2023-02-28T14:38:19;98436.56;;;1.72;92.87
70506;BME280;58032;49.820;6.274;2023-02-28T14:40:49;98452.53;;;1.48;93.56
70506;BME280;58032;49.820;6.274;2023-02-28T14:43:25;98442.47;;;1.36;92.84
70506;BME280;58032;49.820;6.274;2023-02-28T14:45:56;98442.47;;;1.70;93.15
70506;BME280;58032;49.820;6.274;2023-02-28T14:48:24;98438.19;;;1.80;93.03
70506;BME280;58032;49.820;6.274;2023-02-28T14:50:55;98431.44;;;1.78;92.25
70506;BME280;58032;49.820;6.274;2023-02-28T14:53:26;98434.63;;;1.80;91.60
70506;BME280;58032;49.820;6.274;2023-02-28T14:55:54;98433.06;;;1.82;92.25
70506;BME280;58032;49.820;6.274;2023-02-28T15:00:56;98438.34;;;1.57;92.95
70506;BME280;58032;49.820;6.274;2023-02-28T15:03:38;98444.91;;;1.76;93.38
70506;BME280;58032;49.820;6.274;2023-02-28T15:06:13;98426.97;;;1.69;93.60
70506;BME280;58032;49.820;6.274;2023-02-28T15:08:40;98435.78;;;1.75;93.12
70506;BME280;58032;49.820;6.274;2023-02-28T15:11:16;98427.56;;;1.86;94.01
70506;BME280;58032;49.820;6.274;2023-02-28T15:13:50;98441.06;;;1.23;92.59
70506;BME280;58032;49.820;6.274;2023-02-28T15:16:29;98428.75;;;1.51;92.95
70506;BME280;58032;49.820;6.274;2023-02-28T15:19:05;98424.84;;;1.55;92.52